首页
METAR-TAF:

METAR-TAF

机场 :

Greer, 南卡罗来纳州, 美国

纬度: 34-53-02N, 经度: 082-13-15W, 海拔: 296米

当前天气观测

该预报发布于29分钟前的19:53 UTC
风速7节,风向东北
温度 9°C
湿度 29%
气压 1023 hPa
能見度: 16.1公里
多云层高于12000英尺

METAR: KGSP 231953Z 05007KT 10SM BKN120 09/M08 A3021 RMK AO2 SLP234 T00891083

时间: 15:22 (20:22 UTC)

预报

该预报发布于2小时和47分钟前的17:35 UTC
预报有效从23日的 18点(UTC)到 24日的 18点(UTC)
风速8节,风向东北
能見度: 10公里
多云层高于10000英尺
多云层高于25000英尺
从 24日的 0400点(UTC)
风速8节,风向东北
能見度: 10公里
阴天层高于2900英尺
附近有阵雨
从 24日的 0600点(UTC)
风速8节,风向东北
能見度: 9.7公里
阴天层高于2100英尺
小阵雨
从 24日的 0800点(UTC)
风速11节,风向东北
能見度: 9.7公里
阴天层高于900英尺
小阵雨, 轻雾
从 24日的 1300点(UTC)
风速8节,风向东北
能見度: 4.8公里
阴天层高于500英尺
小阵雨, 轻雾

TAF: KGSP 231735Z 2318/2418 04008KT P6SM BKN100 BKN250 FM240400 04008KT P6SM VCSH OVC029 FM240600 05008KT 6SM -SHRA OVC021 FM240800 05011KT 6SM -SHRA BR OVC009 FM241300 05008KT 3SM -SHRA BR OVC005 WS020/14030KT

超过4000个机场的气象观测和天气预报(METAR&TAF报告)。

可查询的气象台以黄色和红色小点在地图上表示。

将鼠标移到小点上方,可查看气象台名称。

然后点击查看天气观测和预报。

如需切换地图:点击带黑十字的绿色按钮放大地图;点击带横线的绿色按钮缩小地图;或者点击绿色箭头查看邻近地区的地图。


METAR-TAF: